Time;durP1;ratioP1;P1;durP2;ratioP2;P2;SDS_P1;SDS_P2;PMS_P1;PMS_P2;Temp;Humidity;BMP_temperature;BMP_pressure;BME280_temperature;BME280_humidity;BME280_pressure;Samples;Min_cycle;Max_cycle;Signal;HPM_P1;HPM_P2
2021/10/02 00:50:15;;;;;;;1.70;1.60;;;19.30;99.90;;;;;;20748838;28;20755;-73
2021/10/02 01:00:20;;;;;;;0.53;0.50;;;19.20;99.90;;;;;;20739703;23;20236;-68
2021/10/02 01:10:33;;;;;;;0.43;0.43;;;19.20;99.90;;;;;;20513840;28;20288;-67
2021/10/02 01:20:47;;;;;;;0.50;0.30;;;19.00;99.90;;;;;;20505595;28;20224;-67
2021/10/02 01:31:04;;;;;;;0.40;0.30;;;19.00;99.90;;;;;;20503466;29;20208;-68
2021/10/02 01:51:31;;;;;;;0.20;0.10;;;18.90;99.90;;;;;;20502247;28;20288;-67
2021/10/02 02:01:35;;;;;;;0.67;0.23;;;18.70;99.90;;;;;;20548261;23;20238;-72
2021/10/02 02:11:41;;;;;;;0.20;0.20;;;18.50;99.90;;;;;;20660080;28;20215;-71
2021/10/02 02:21:45;;;;;;;0.20;0.00;;;18.40;99.90;;;;;;20661307;28;20576;-72
2021/10/02 02:31:51;;;;;;;0.20;0.10;;;18.30;99.90;;;;;;20659656;28;20196;-72
2021/10/02 02:41:54;;;;;;;0.40;0.30;;;18.40;99.90;;;;;;20658418;28;20235;-72
2021/10/02 02:52:03;;;;;;;0.30;0.30;;;18.20;99.90;;;;;;20658050;28;20283;-70
2021/10/02 03:02:12;;;;;;;0.73;0.73;;;18.00;99.90;;;;;;20623219;23;20240;-67
2021/10/02 03:12:17;;;;;;;0.60;0.53;;;18.20;99.90;;;;;;20479918;28;20227;-67
2021/10/02 03:22:21;;;;;;;1.13;1.13;;;18.40;99.90;;;;;;20496269;28;20682;-66
2021/10/02 03:32:27;;;;;;;0.37;0.27;;;18.60;99.90;;;;;;20495645;28;20201;-67
2021/10/02 03:42:46;;;;;;;0.20;0.10;;;18.70;99.90;;;;;;21140316;27;20550;-68
2021/10/02 03:52:50;;;;;;;0.23;0.13;;;18.70;99.90;;;;;;21138636;28;20192;-71
2021/10/02 04:02:55;;;;;;;0.20;0.20;;;18.50;99.90;;;;;;21060190;22;20229;-75
2021/10/02 04:12:59;;;;;;;0.73;0.37;;;18.30;99.90;;;;;;20867129;28;20198;-74
2021/10/02 04:23:04;;;;;;;0.37;0.37;;;18.20;99.90;;;;;;20861691;28;20221;-73
2021/10/02 04:33:07;;;;;;;0.30;0.30;;;18.20;99.90;;;;;;20884820;28;20277;-72
2021/10/02 04:43:12;;;;;;;0.30;0.30;;;17.90;99.90;;;;;;20884253;28;20204;-72
2021/10/02 04:53:16;;;;;;;0.37;0.37;;;17.80;99.90;;;;;;20832978;28;20240;-72
2021/10/02 05:03:21;;;;;;;0.27;0.27;;;17.90;99.90;;;;;;20827173;28;20229;-71
2021/10/02 05:13:25;;;;;;;0.60;0.60;;;17.80;99.90;;;;;;20811523;28;20309;-70
2021/10/02 05:23:30;;;;;;;0.70;0.70;;;17.70;99.90;;;;;;20780702;28;20659;-72
2021/10/02 05:33:34;;;;;;;1.53;0.97;;;17.70;99.90;;;;;;20764377;28;20226;-71
2021/10/02 05:43:39;;;;;;;0.63;0.63;;;17.60;99.90;;;;;;20780071;28;20195;-71
2021/10/02 05:53:43;;;;;;;0.67;0.67;;;17.50;99.90;;;;;;20779082;28;20615;-71
2021/10/02 06:03:48;;;;;;;0.20;0.10;;;17.60;99.90;;;;;;20776634;28;20285;-71
2021/10/02 06:13:52;;;;;;;0.83;0.83;;;17.70;99.90;;;;;;20760927;28;20328;-71
2021/10/02 06:23:58;;;;;;;0.20;0.20;;;17.80;99.90;;;;;;20778344;28;20211;-71
2021/10/02 06:34:02;;;;;;;0.20;0.10;;;18.00;99.90;;;;;;20776983;28;20662;-73
2021/10/02 06:44:10;;;;;;;0.20;0.00;;;18.50;99.90;;;;;;20775181;28;20204;-73
2021/10/02 06:54:14;;;;;;;0.60;0.60;;;18.70;99.90;;;;;;20774559;28;20253;-73
2021/10/02 07:04:20;;;;;;;0.40;0.40;;;19.10;99.90;;;;;;20773910;28;20650;-72
2021/10/02 07:14:31;;;;;;;0.70;0.70;;;19.60;99.90;;;;;;20755027;28;20305;-73
2021/10/02 07:24:37;;;;;;;0.50;0.50;;;20.00;99.90;;;;;;20773230;28;20648;-73
2021/10/02 07:34:40;;;;;;;0.30;0.17;;;20.50;99.90;;;;;;20792849;28;20236;-72
2021/10/02 07:44:49;;;;;;;0.43;0.43;;;20.80;99.90;;;;;;20815972;28;20198;-73
2021/10/02 07:54:53;;;;;;;0.30;0.30;;;21.20;99.90;;;;;;20813172;28;20240;-73
2021/10/02 08:05:00;;;;;;;0.40;0.40;;;21.50;99.90;;;;;;20795861;28;20218;-69
2021/10/02 08:15:04;;;;;;;1.70;0.60;;;21.90;99.90;;;;;;20761630;28;20523;-75
2021/10/02 08:25:12;;;;;;;0.28;0.25;;;22.10;99.90;;;;;;20761383;28;20198;-73
2021/10/02 08:35:15;;;;;;;0.93;0.80;;;22.20;99.90;;;;;;20759429;28;20345;-72
2021/10/02 08:45:21;;;;;;;0.30;0.28;;;22.20;99.90;;;;;;20767930;28;20206;-72
2021/10/02 08:55:26;;;;;;;0.82;0.52;;;22.40;99.90;;;;;;20781181;28;20309;-72
2021/10/02 09:05:30;;;;;;;3.90;0.63;;;22.60;99.90;;;;;;20780317;28;20233;-72
2021/10/02 09:15:34;;;;;;;1.60;1.05;;;22.80;99.90;;;;;;20781075;28;20301;-72
2021/10/02 09:25:48;;;;;;;1.67;0.63;;;22.90;99.90;;;;;;20759945;28;20719;-74
2021/10/02 09:35:54;;;;;;;0.85;0.60;;;23.30;99.90;;;;;;20761749;28;20253;-73
2021/10/02 09:46:00;;;;;;;1.27;0.73;;;23.40;99.90;;;;;;20761777;28;20190;-74
2021/10/02 09:56:07;;;;;;;2.93;1.87;;;23.70;99.90;;;;;;20806969;28;20443;-76
2021/10/02 10:06:20;;;;;;;0.93;0.60;;;24.30;99.90;;;;;;20764892;28;20240;-74
2021/10/02 10:16:37;;;;;;;0.30;0.30;;;24.60;99.90;;;;;;20733978;28;20590;-72
2021/10/02 10:26:45;;;;;;;1.48;0.75;;;24.90;99.90;;;;;;20769146;28;20198;-72
2021/10/02 10:36:49;;;;;;;0.98;0.98;;;25.20;99.90;;;;;;20809315;28;20222;-76
2021/10/02 10:46:54;;;;;;;1.88;1.08;;;25.30;99.90;;;;;;20771742;28;20217;-75
2021/10/02 10:56:58;;;;;;;0.50;0.50;;;25.60;99.90;;;;;;20754352;28;20241;-74
2021/10/02 11:07:03;;;;;;;0.52;0.32;;;26.00;99.90;;;;;;20772099;28;20250;-73
2021/10/02 11:17:07;;;;;;;0.32;0.32;;;26.00;99.90;;;;;;20774040;28;20578;-73
2021/10/02 11:27:22;;;;;;;2.17;1.15;;;26.40;99.90;;;;;;20795527;28;20230;-70
2021/10/02 11:37:26;;;;;;;0.82;0.77;;;27.70;99.90;;;;;;20769262;28;20250;-73
2021/10/02 11:47:36;;;;;;;3.97;1.00;;;27.90;99.90;;;;;;20731253;28;20202;-73
2021/10/02 11:58:12;;;;;;;2.75;1.17;;;27.80;99.90;;;;;;20736750;28;20226;-73
2021/10/02 12:08:18;;;;;;;0.52;0.32;;;29.00;99.90;;;;;;20747441;28;20242;-70
2021/10/02 12:18:22;;;;;;;1.02;0.57;;;28.80;99.90;;;;;;20746264;28;20226;-74
2021/10/02 12:28:29;;;;;;;0.25;0.25;;;28.70;99.90;;;;;;20795746;28;20205;-72
2021/10/02 12:38:40;;;;;;;1.52;1.02;;;29.20;99.90;;;;;;20827126;28;20233;-74
2021/10/02 12:48:46;;;;;;;1.13;0.65;;;29.80;99.90;;;;;;20809572;28;20527;-72
2021/10/02 12:58:50;;;;;;;3.40;1.20;;;30.30;99.90;;;;;;20809489;28;20305;-73
2021/10/02 13:09:00;;;;;;;2.40;1.23;;;31.10;99.90;;;;;;20826367;28;20230;-73
2021/10/02 13:19:03;;;;;;;2.05;0.88;;;30.70;99.90;;;;;;20808283;28;20232;-75
2021/10/02 13:29:08;;;;;;;1.48;1.13;;;31.00;99.90;;;;;;20753662;28;20201;-76
2021/10/02 13:39:13;;;;;;;1.08;0.70;;;31.60;99.90;;;;;;20708708;28;20254;-76
2021/10/02 13:49:18;;;;;;;1.23;0.90;;;31.80;99.90;;;;;;20741346;28;20233;-73
2021/10/02 13:59:22;;;;;;;0.68;0.68;;;30.60;99.90;;;;;;20738585;28;20240;-75
2021/10/02 14:09:27;;;;;;;2.38;0.80;;;31.70;99.90;;;;;;20736000;28;20309;-74
2021/10/02 14:19:31;;;;;;;0.38;0.38;;;28.20;99.90;;;;;;20734882;28;20218;-74
2021/10/02 14:29:37;;;;;;;0.50;0.43;;;28.20;99.90;;;;;;20774399;28;20194;-74
2021/10/02 14:39:41;;;;;;;0.75;0.60;;;28.90;99.90;;;;;;20797886;28;20698;-73
2021/10/02 14:49:47;;;;;;;1.73;0.85;;;28.30;99.90;;;;;;20815622;28;20189;-74
2021/10/02 14:59:53;;;;;;;1.52;1.42;;;29.20;99.90;;;;;;20813929;28;20230;-76
2021/10/02 15:09:58;;;;;;;1.55;0.85;;;29.80;99.90;;;;;;20814671;28;20205;-74
2021/10/02 15:20:02;;;;;;;1.75;1.02;;;29.30;99.90;;;;;;20813737;28;20276;-75
2021/10/02 15:30:08;;;;;;;2.72;1.65;;;28.20;99.90;;;;;;20750101;28;20277;-74
2021/10/02 15:40:15;;;;;;;3.47;0.98;;;28.20;99.90;;;;;;20729516;28;20227;-75
2021/10/02 15:50:23;;;;;;;1.15;1.13;;;27.10;99.90;;;;;;20712821;28;20194;-76
2021/10/02 16:00:27;;;;;;;1.15;0.80;;;26.60;99.90;;;;;;20727681;28;20232;-80
2021/10/02 16:10:33;;;;;;;0.75;0.68;;;25.10;99.90;;;;;;20740601;28;20210;-75
2021/10/02 16:20:38;;;;;;;1.40;0.40;;;24.70;99.90;;;;;;20760582;28;20231;-73
2021/10/02 16:30:43;;;;;;;0.57;0.57;;;24.40;99.90;;;;;;20766320;28;20233;-70
2021/10/02 16:40:47;;;;;;;1.23;0.77;;;24.20;99.90;;;;;;20808672;28;20313;-73
2021/10/02 16:50:53;;;;;;;1.10;0.82;;;24.10;99.90;;;;;;20822678;28;20202;-76
2021/10/02 17:00:57;;;;;;;0.20;0.20;;;23.80;99.90;;;;;;20822784;28;20768;-75
2021/10/02 17:11:02;;;;;;;1.67;0.30;;;23.50;99.90;;;;;;20811502;28;20210;-73
2021/10/02 17:21:06;;;;;;;1.10;0.80;;;23.70;99.90;;;;;;20720476;28;20215;-74
2021/10/02 17:31:11;;;;;;;1.25;1.15;;;23.50;99.90;;;;;;20808423;28;20283;-75
2021/10/02 17:41:15;;;;;;;1.75;0.90;;;23.40;99.90;;;;;;20806913;28;20226;-75
2021/10/02 17:51:20;;;;;;;0.55;0.47;;;23.30;99.90;;;;;;20819597;28;20202;-74
2021/10/02 18:01:24;;;;;;;1.67;1.55;;;23.30;99.90;;;;;;20800378;28;20229;-76
2021/10/02 18:11:29;;;;;;;1.48;1.38;;;23.40;99.90;;;;;;20779643;28;20600;-75
2021/10/02 18:21:33;;;;;;;2.25;1.70;;;23.40;99.90;;;;;;20817731;28;20226;-84
2021/10/02 18:31:38;;;;;;;1.90;1.33;;;23.50;99.90;;;;;;20816626;28;20198;-74
2021/10/02 18:41:41;;;;;;;2.15;1.48;;;23.30;99.90;;;;;;20818632;28;20226;-74
2021/10/02 18:51:49;;;;;;;1.55;1.30;;;23.50;99.90;;;;;;20816757;28;20623;-75
2021/10/02 19:01:54;;;;;;;0.63;0.50;;;23.70;99.90;;;;;;20794797;28;20271;-74
2021/10/02 19:11:59;;;;;;;2.35;0.98;;;23.70;99.90;;;;;;20813934;28;20257;-76
2021/10/02 19:22:03;;;;;;;0.68;0.68;;;23.60;99.90;;;;;;20780862;28;20721;-76
2021/10/02 19:32:09;;;;;;;1.85;0.68;;;23.70;99.90;;;;;;20768122;28;20273;-77
2021/10/02 19:42:15;;;;;;;8.35;2.38;;;23.70;99.90;;;;;;20770660;28;21028;-78
2021/10/02 19:52:20;;;;;;;0.85;0.85;;;23.60;99.90;;;;;;20784174;28;20195;-77
2021/10/02 20:02:24;;;;;;;5.18;1.10;;;23.70;99.90;;;;;;20807079;28;20625;-75
2021/10/02 20:12:30;;;;;;;4.85;2.17;;;23.60;99.90;;;;;;20783253;28;20271;-73
2021/10/02 20:22:33;;;;;;;1.20;1.10;;;23.60;99.90;;;;;;20783439;28;20229;-77
2021/10/02 20:32:39;;;;;;;4.60;1.23;;;23.70;99.90;;;;;;20787933;28;20218;-76
2021/10/02 20:42:43;;;;;;;0.55;0.55;;;23.60;99.90;;;;;;20787363;28;20225;-78
2021/10/02 20:52:53;;;;;;;1.00;0.90;;;23.80;99.90;;;;;;20781939;28;20230;-75
2021/10/02 21:02:58;;;;;;;3.50;1.95;;;23.70;99.90;;;;;;20727027;28;20574;-76
2021/10/02 21:13:04;;;;;;;3.40;1.67;;;23.80;99.90;;;;;;20797093;28;20218;-78
2021/10/02 21:23:08;;;;;;;2.38;1.92;;;23.70;99.90;;;;;;20806757;28;20237;-75
2021/10/02 21:33:13;;;;;;;1.40;1.30;;;23.60;99.90;;;;;;20824444;28;20198;-80
2021/10/02 21:43:19;;;;;;;0.95;0.85;;;23.60;99.90;;;;;;20825274;28;20222;-77
2021/10/02 21:53:28;;;;;;;0.60;0.60;;;23.60;99.90;;;;;;20806038;28;20545;-80
2021/10/02 22:03:33;;;;;;;0.60;0.60;;;23.50;99.90;;;;;;20787189;28;20230;-76
2021/10/02 22:13:39;;;;;;;1.85;1.05;;;23.70;99.90;;;;;;20790467;28;20729;-76
2021/10/02 22:23:46;;;;;;;0.40;0.32;;;23.50;99.90;;;;;;20805370;28;20214;-76
2021/10/02 22:33:52;;;;;;;0.85;0.85;;;23.60;99.90;;;;;;20803630;28;20281;-76
2021/10/02 22:43:56;;;;;;;1.75;1.05;;;23.50;99.90;;;;;;20819073;28;20248;-76
2021/10/02 22:54:01;;;;;;;0.95;0.50;;;23.40;99.90;;;;;;20817382;28;20194;-74
2021/10/02 23:04:05;;;;;;;1.95;0.70;;;23.40;99.90;;;;;;20818106;28;20233;-75
2021/10/02 23:14:12;;;;;;;0.95;0.95;;;23.50;99.90;;;;;;20799643;28;20293;-76
2021/10/02 23:24:19;;;;;;;0.73;0.73;;;23.60;99.90;;;;;;20816084;28;20721;-78
2021/10/02 23:34:24;;;;;;;0.40;0.30;;;23.50;99.90;;;;;;20799556;28;20309;-75
2021/10/02 23:44:28;;;;;;;1.25;0.55;;;23.60;99.90;;;;;;20816395;28;20222;-76
2021/10/02 23:54:39;;;;;;;0.55;0.50;;;23.60;99.90;;;;;;20807308;28;20889;-76
